Quebeck, TN (38579)

7:59 AM CST on January 26, 2015 (GMT -0600)
Sugar Pea Farm | Change Station
CLOSE
Current Station
Personal Weather Station
Location: Doyle, TN
Elevation: 925 ft
Nearby Weather Stations
Active Advisory: Special Statement

Elev 925 ft 35.86 °N, 85.48 °W | Updated 2 seconds ago

Overcast
Overcast
31.6 °F
Feels Like 28 °F
N
3.6
Wind Variable Wind from WNW
Gusts 7.4 mph

Today
High -- | Low -- °F
--% Chance of Precip.
Yesterday
High -- | Low -- °F
Precip. -- in
6:46 AM 5:02 PM
Waxing Crescent, 43% visible
Pressure 29.89 in
Visibility 8.0 miles
Clouds Overcast 600 ft
Windchill 28 °F
Dew Point 20 °F
Humidity 62%
Rainfall 0.07 in
Snow Depth Not available.
UV 0 out of 12
Pollen .30 out of 12
Air Quality Not available.
Flu Activity Not available.
METAR KSRB 261355Z AUTO 33009KT 8SM OVC006 M01/M01 A2989 RMK

More Conditions Fewer Conditions

Pressure 29.89 in
Visibility 8.0 miles
Clouds Overcast 600 ft
Windchill 28 °F
Dew Point 20 °F
Humidity 62%
Rainfall 0.07 in
Snow Depth Not available.
UV 0 out of 12
Pollen .30 out of 12
Air Quality Not available.
Flu Activity Not available.
METAR KSRB 261355Z AUTO 33009KT 8SM OVC006 M01/M01 A2989 RMK

More Conditions Fewer Conditions

10-Day Weather Forecast

Almanac

Astronomy

Jan. 26, 2015 Rise Set
Actual Time
Civil Twilight
Nautical Twilight
Astronomical Twilight
Moon
Length of Visible Light
Length of Day
Tomorrow will be .
, % of the Moon is Illuminated

Today's Extremes

State Highs State Lows

Community

WunderPhotos

Upload Photos

1,790,200 photos uploaded!

WunderBlogs® & News

Nearby

Air Quality

  Air Quality AQ Index Pollutant
Not available.

Snow Depth

Station Depth Elevation

Earthquake Activity

City Distance Mag. Time & Date
Minimum magnitude displayed is 2.5.

Coastal Water Temperatures

Place Temperature

Nearby Weather Stations